sensor_id;sensor_type;location;lat;lon;timestamp;pressure;altitude;pressure_sealevel;temperature;humidity
71778;BME280;59609;52.430;4.668;2022-10-26T00:02:13;101539.53;;;10.87;100.00
71778;BME280;59609;52.430;4.668;2022-10-26T00:04:39;101530.69;;;10.83;100.00
71778;BME280;59609;52.430;4.668;2022-10-26T00:07:04;101545.44;;;10.92;100.00
71778;BME280;59609;52.430;4.668;2022-10-26T00:09:29;101543.69;;;10.91;100.00
71778;BME280;59609;52.430;4.668;2022-10-26T00:11:55;101546.34;;;10.83;100.00
71778;BME280;59609;52.430;4.668;2022-10-26T00:14:20;101536.03;;;10.85;100.00
71778;BME280;59609;52.430;4.668;2022-10-26T00:16:46;101525.88;;;10.85;100.00
71778;BME280;59609;52.430;4.668;2022-10-26T00:19:11;101526.75;;;10.86;100.00
71778;BME280;59609;52.430;4.668;2022-10-26T00:21:36;101522.38;;;10.93;100.00
71778;BME280;59609;52.430;4.668;2022-10-26T00:24:02;101527.41;;;10.98;100.00
71778;BME280;59609;52.430;4.668;2022-10-26T00:26:27;101514.91;;;11.03;100.00
71778;BME280;59609;52.430;4.668;2022-10-26T00:28:54;101509.97;;;11.07;100.00
71778;BME280;59609;52.430;4.668;2022-10-26T00:31:21;101512.72;;;11.07;100.00
71778;BME280;59609;52.430;4.668;2022-10-26T00:33:46;101508.78;;;11.09;100.00
71778;BME280;59609;52.430;4.668;2022-10-26T00:36:12;101506.16;;;11.08;100.00
71778;BME280;59609;52.430;4.668;2022-10-26T00:38:40;101514.00;;;11.12;100.00
71778;BME280;59609;52.430;4.668;2022-10-26T00:41:17;101503.09;;;11.11;100.00
71778;BME280;59609;52.430;4.668;2022-10-26T00:43:43;101507.28;;;11.15;100.00
71778;BME280;59609;52.430;4.668;2022-10-26T00:46:23;101496.13;;;11.16;100.00
71778;BME280;59609;52.430;4.668;2022-10-26T00:49:03;101497.69;;;11.19;100.00
71778;BME280;59609;52.430;4.668;2022-10-26T00:51:42;101493.44;;;11.24;100.00
71778;BME280;59609;52.430;4.668;2022-10-26T00:54:16;101489.50;;;11.27;100.00
71778;BME280;59609;52.430;4.668;2022-10-26T00:56:43;101489.50;;;11.27;100.00
71778;BME280;59609;52.430;4.668;2022-10-26T00:59:11;101479.56;;;11.16;100.00
71778;BME280;59609;52.430;4.668;2022-10-26T01:01:40;101489.19;;;11.30;100.00
71778;BME280;59609;52.430;4.668;2022-10-26T01:04:07;101480.38;;;11.26;100.00
71778;BME280;59609;52.430;4.668;2022-10-26T01:06:33;101479.81;;;11.23;100.00
71778;BME280;59609;52.430;4.668;2022-10-26T01:09:00;101477.75;;;11.25;100.00
71778;BME280;59609;52.430;4.668;2022-10-26T01:11:26;101471.53;;;11.23;100.00
71778;BME280;59609;52.430;4.668;2022-10-26T01:13:52;101471.69;;;11.21;100.00
71778;BME280;59609;52.430;4.668;2022-10-26T01:16:43;101476.19;;;11.22;100.00
71778;BME280;59609;52.430;4.668;2022-10-26T01:22:50;101458.44;;;11.25;100.00
71778;BME280;59609;52.430;4.668;2022-10-26T01:28:06;101461.84;;;11.19;100.00
71778;BME280;59609;52.430;4.668;2022-10-26T01:30:43;101444.59;;;11.17;100.00
71778;BME280;59609;52.430;4.668;2022-10-26T01:36:14;101452.47;;;11.29;100.00
71778;BME280;59609;52.430;4.668;2022-10-26T01:38:57;101455.00;;;11.23;100.00
71778;BME280;59609;52.430;4.668;2022-10-26T01:41:33;101452.69;;;11.18;100.00
71778;BME280;59609;52.430;4.668;2022-10-26T01:44:03;101443.94;;;11.23;100.00
71778;BME280;59609;52.430;4.668;2022-10-26T01:46:35;101444.28;;;11.20;100.00
71778;BME280;59609;52.430;4.668;2022-10-26T01:49:08;101436.22;;;11.26;100.00
71778;BME280;59609;52.430;4.668;2022-10-26T01:51:34;101442.31;;;11.30;100.00
71778;BME280;59609;52.430;4.668;2022-10-26T01:54:00;101432.38;;;11.37;100.00
71778;BME280;59609;52.430;4.668;2022-10-26T01:56:28;101433.22;;;11.37;100.00
71778;BME280;59609;52.430;4.668;2022-10-26T02:12:40;101415.28;;;11.33;100.00
71778;BME280;59609;52.430;4.668;2022-10-26T02:15:15;101415.72;;;11.29;100.00
71778;BME280;59609;52.430;4.668;2022-10-26T02:17:51;101411.09;;;11.29;100.00
71778;BME280;59609;52.430;4.668;2022-10-26T02:20:35;101407.56;;;11.37;100.00
71778;BME280;59609;52.430;4.668;2022-10-26T02:23:06;101400.75;;;11.49;100.00
71778;BME280;59609;52.430;4.668;2022-10-26T02:25:35;101397.91;;;11.41;100.00
71778;BME280;59609;52.430;4.668;2022-10-26T02:28:05;101401.19;;;11.62;100.00
71778;BME280;59609;52.430;4.668;2022-10-26T02:30:32;101401.53;;;11.59;100.00
71778;BME280;59609;52.430;4.668;2022-10-26T02:32:59;101404.44;;;11.58;100.00
71778;BME280;59609;52.430;4.668;2022-10-26T02:35:28;101407.50;;;11.55;100.00
71778;BME280;59609;52.430;4.668;2022-10-26T02:37:56;101408.38;;;11.55;100.00
71778;BME280;59609;52.430;4.668;2022-10-26T02:40:24;101403.75;;;11.56;100.00
71778;BME280;59609;52.430;4.668;2022-10-26T02:42:52;101400.44;;;11.52;100.00
71778;BME280;59609;52.430;4.668;2022-10-26T02:45:22;101399.56;;;11.52;100.00
71778;BME280;59609;52.430;4.668;2022-10-26T02:47:50;101399.22;;;11.55;100.00
71778;BME280;59609;52.430;4.668;2022-10-26T02:50:15;101389.06;;;11.55;100.00
71778;BME280;59609;52.430;4.668;2022-10-26T02:55:21;101380.06;;;11.71;100.00
71778;BME280;59609;52.430;4.668;2022-10-26T02:58:02;101376.50;;;11.78;100.00
71778;BME280;59609;52.430;4.668;2022-10-26T03:00:30;101375.50;;;11.79;100.00
71778;BME280;59609;52.430;4.668;2022-10-26T03:02:57;101374.47;;;11.80;100.00
71778;BME280;59609;52.430;4.668;2022-10-26T03:05:28;101390.06;;;11.90;100.00
71778;BME280;59609;52.430;4.668;2022-10-26T03:07:54;101388.66;;;11.85;100.00
71778;BME280;59609;52.430;4.668;2022-10-26T03:10:21;101392.44;;;11.84;100.00
71778;BME280;59609;52.430;4.668;2022-10-26T03:12:46;101385.22;;;11.92;100.00
71778;BME280;59609;52.430;4.668;2022-10-26T03:15:12;101390.16;;;12.06;100.00
71778;BME280;59609;52.430;4.668;2022-10-26T03:17:38;101386.91;;;12.10;100.00
71778;BME280;59609;52.430;4.668;2022-10-26T03:20:04;101380.53;;;12.10;100.00
71778;BME280;59609;52.430;4.668;2022-10-26T03:22:29;101377.38;;;12.05;100.00
71778;BME280;59609;52.430;4.668;2022-10-26T03:24:55;101378.44;;;12.04;100.00
71778;BME280;59609;52.430;4.668;2022-10-26T03:27:20;101372.06;;;12.11;100.00
71778;BME280;59609;52.430;4.668;2022-10-26T03:29:46;101369.47;;;12.10;100.00
71778;BME280;59609;52.430;4.668;2022-10-26T03:32:11;101367.91;;;12.07;100.00
71778;BME280;59609;52.430;4.668;2022-10-26T03:34:36;101363.09;;;12.09;100.00
71778;BME280;59609;52.430;4.668;2022-10-26T03:37:02;101366.88;;;12.08;100.00
71778;BME280;59609;52.430;4.668;2022-10-26T03:39:27;101361.19;;;12.10;100.00
71778;BME280;59609;52.430;4.668;2022-10-26T03:41:52;101366.06;;;12.16;100.00
71778;BME280;59609;52.430;4.668;2022-10-26T03:44:19;101359.50;;;12.17;100.00
71778;BME280;59609;52.430;4.668;2022-10-26T03:46:44;101358.25;;;12.11;100.00
71778;BME280;59609;52.430;4.668;2022-10-26T03:49:10;101357.06;;;12.14;100.00
71778;BME280;59609;52.430;4.668;2022-10-26T03:51:35;101358.47;;;12.18;100.00
71778;BME280;59609;52.430;4.668;2022-10-26T03:54:00;101355.22;;;12.22;100.00
71778;BME280;59609;52.430;4.668;2022-10-26T03:56:26;101354.72;;;12.27;100.00
71778;BME280;59609;52.430;4.668;2022-10-26T03:58:51;101356.44;;;12.28;100.00
71778;BME280;59609;52.430;4.668;2022-10-26T04:01:17;101354.75;;;12.35;100.00
71778;BME280;59609;52.430;4.668;2022-10-26T04:03:42;101354.06;;;12.33;100.00
71778;BME280;59609;52.430;4.668;2022-10-26T04:06:07;101353.53;;;12.37;100.00
71778;BME280;59609;52.430;4.668;2022-10-26T04:08:33;101364.78;;;12.36;100.00
71778;BME280;59609;52.430;4.668;2022-10-26T04:10:58;101359.59;;;12.41;100.00
71778;BME280;59609;52.430;4.668;2022-10-26T04:13:23;101356.47;;;12.36;100.00
71778;BME280;59609;52.430;4.668;2022-10-26T04:15:49;101350.63;;;12.39;100.00
71778;BME280;59609;52.430;4.668;2022-10-26T04:18:14;101356.00;;;12.41;100.00
71778;BME280;59609;52.430;4.668;2022-10-26T04:20:40;101352.91;;;12.44;100.00
71778;BME280;59609;52.430;4.668;2022-10-26T04:23:08;101347.53;;;12.42;100.00
71778;BME280;59609;52.430;4.668;2022-10-26T04:25:35;101350.97;;;12.36;100.00
71778;BME280;59609;52.430;4.668;2022-10-26T04:28:02;101354.41;;;12.38;100.00
71778;BME280;59609;52.430;4.668;2022-10-26T04:30:28;101345.78;;;12.41;100.00
71778;BME280;59609;52.430;4.668;2022-10-26T04:32:53;101350.47;;;12.49;100.00
71778;BME280;59609;52.430;4.668;2022-10-26T04:35:19;101348.44;;;12.51;100.00
71778;BME280;59609;52.430;4.668;2022-10-26T04:37:44;101347.19;;;12.45;100.00
71778;BME280;59609;52.430;4.668;2022-10-26T04:40:10;101349.06;;;12.45;100.00
71778;BME280;59609;52.430;4.668;2022-10-26T04:42:42;101351.00;;;12.44;100.00
71778;BME280;59609;52.430;4.668;2022-10-26T04:45:08;101346.31;;;12.45;100.00
71778;BME280;59609;52.430;4.668;2022-10-26T04:47:34;101341.66;;;12.45;100.00
71778;BME280;59609;52.430;4.668;2022-10-26T04:50:00;101353.25;;;12.49;100.00
71778;BME280;59609;52.430;4.668;2022-10-26T04:52:25;101358.25;;;12.45;100.00
71778;BME280;59609;52.430;4.668;2022-10-26T04:54:51;101357.75;;;12.50;100.00
71778;BME280;59609;52.430;4.668;2022-10-26T04:57:16;101346.16;;;12.46;100.00
71778;BME280;59609;52.430;4.668;2022-10-26T04:59:41;101352.56;;;12.47;100.00
71778;BME280;59609;52.430;4.668;2022-10-26T05:02:07;101350.34;;;12.50;100.00
71778;BME280;59609;52.430;4.668;2022-10-26T05:04:32;101344.81;;;12.50;100.00
71778;BME280;59609;52.430;4.668;2022-10-26T05:06:57;101332.31;;;12.38;100.00
71778;BME280;59609;52.430;4.668;2022-10-26T05:09:22;101353.44;;;12.47;100.00
71778;BME280;59609;52.430;4.668;2022-10-26T05:11:48;101347.91;;;12.47;100.00
71778;BME280;59609;52.430;4.668;2022-10-26T05:14:13;101344.59;;;12.44;100.00
71778;BME280;59609;52.430;4.668;2022-10-26T05:16:39;101340.44;;;12.39;100.00
71778;BME280;59609;52.430;4.668;2022-10-26T05:19:04;101340.97;;;12.51;100.00
71778;BME280;59609;52.430;4.668;2022-10-26T05:21:30;101345.50;;;12.52;100.00
71778;BME280;59609;52.430;4.668;2022-10-26T05:23:55;101339.97;;;12.52;100.00
71778;BME280;59609;52.430;4.668;2022-10-26T05:26:21;101340.69;;;12.54;100.00
71778;BME280;59609;52.430;4.668;2022-10-26T05:28:47;101331.00;;;12.58;100.00
71778;BME280;59609;52.430;4.668;2022-10-26T05:31:13;101327.88;;;12.53;100.00
71778;BME280;59609;52.430;4.668;2022-10-26T05:33:38;101324.09;;;12.62;100.00
71778;BME280;59609;52.430;4.668;2022-10-26T05:36:04;101325.13;;;12.61;100.00
71778;BME280;59609;52.430;4.668;2022-10-26T05:38:30;101316.50;;;12.56;100.00
71778;BME280;59609;52.430;4.668;2022-10-26T05:40:55;101323.06;;;12.71;100.00
71778;BME280;59609;52.430;4.668;2022-10-26T05:43:21;101323.59;;;12.75;100.00
71778;BME280;59609;52.430;4.668;2022-10-26T05:45:51;101316.19;;;12.67;100.00
71778;BME280;59609;52.430;4.668;2022-10-26T05:48:17;101308.72;;;12.68;100.00
71778;BME280;59609;52.430;4.668;2022-10-26T05:50:42;101322.41;;;12.69;100.00
71778;BME280;59609;52.430;4.668;2022-10-26T05:53:07;101322.25;;;12.71;100.00
71778;BME280;59609;52.430;4.668;2022-10-26T05:55:33;101323.63;;;12.83;100.00
71778;BME280;59609;52.430;4.668;2022-10-26T05:57:59;101332.81;;;12.83;100.00
71778;BME280;59609;52.430;4.668;2022-10-26T06:00:26;101330.56;;;12.87;100.00
71778;BME280;59609;52.430;4.668;2022-10-26T06:05:43;101325.38;;;12.84;100.00
71778;BME280;59609;52.430;4.668;2022-10-26T06:08:10;101317.75;;;12.86;100.00
71778;BME280;59609;52.430;4.668;2022-10-26T06:10:37;101323.97;;;12.88;100.00
71778;BME280;59609;52.430;4.668;2022-10-26T06:13:03;101326.59;;;12.89;100.00
71778;BME280;59609;52.430;4.668;2022-10-26T06:15:30;101329.34;;;12.89;100.00
71778;BME280;59609;52.430;4.668;2022-10-26T06:18:15;101334.50;;;12.84;100.00
71778;BME280;59609;52.430;4.668;2022-10-26T06:23:45;101340.91;;;12.85;100.00
71778;BME280;59609;52.430;4.668;2022-10-26T06:26:39;101330.53;;;12.79;100.00
71778;BME280;59609;52.430;4.668;2022-10-26T06:29:31;101332.09;;;12.81;100.00
71778;BME280;59609;52.430;4.668;2022-10-26T06:32:00;101329.13;;;12.75;100.00
71778;BME280;59609;52.430;4.668;2022-10-26T06:34:30;101327.97;;;12.77;100.00
71778;BME280;59609;52.430;4.668;2022-10-26T06:36:58;101338.16;;;12.77;100.00
71778;BME280;59609;52.430;4.668;2022-10-26T06:39:27;101324.13;;;12.78;100.00
71778;BME280;59609;52.430;4.668;2022-10-26T06:41:56;101324.84;;;12.80;100.00
71778;BME280;59609;52.430;4.668;2022-10-26T06:44:22;101329.47;;;12.72;100.00
71778;BME280;59609;52.430;4.668;2022-10-26T06:49:22;101328.78;;;12.78;100.00
71778;BME280;59609;52.430;4.668;2022-10-26T06:51:58;101333.50;;;12.77;100.00
71778;BME280;59609;52.430;4.668;2022-10-26T06:54:30;101332.09;;;12.73;100.00
71778;BME280;59609;52.430;4.668;2022-10-26T06:57:00;101331.75;;;12.76;100.00
71778;BME280;59609;52.430;4.668;2022-10-26T06:59:30;101337.97;;;12.70;100.00
71778;BME280;59609;52.430;4.668;2022-10-26T07:01:56;101339.16;;;12.76;100.00
71778;BME280;59609;52.430;4.668;2022-10-26T07:04:21;101349.38;;;12.75;100.00
71778;BME280;59609;52.430;4.668;2022-10-26T07:06:47;101355.09;;;12.82;100.00
71778;BME280;59609;52.430;4.668;2022-10-26T07:09:12;101351.09;;;12.84;100.00
71778;BME280;59609;52.430;4.668;2022-10-26T07:11:37;101361.34;;;12.92;100.00
71778;BME280;59609;52.430;4.668;2022-10-26T07:14:03;101349.06;;;12.95;100.00
71778;BME280;59609;52.430;4.668;2022-10-26T07:16:28;101349.44;;;13.00;100.00
71778;BME280;59609;52.430;4.668;2022-10-26T07:18:53;101349.75;;;13.05;100.00
71778;BME280;59609;52.430;4.668;2022-10-26T07:21:19;101338.00;;;13.03;100.00
71778;BME280;59609;52.430;4.668;2022-10-26T07:23:44;101352.75;;;13.11;100.00
71778;BME280;59609;52.430;4.668;2022-10-26T07:26:09;101345.81;;;13.07;100.00
71778;BME280;59609;52.430;4.668;2022-10-26T07:28:35;101369.88;;;13.15;100.00
71778;BME280;59609;52.430;4.668;2022-10-26T07:31:00;101366.75;;;13.18;100.00
71778;BME280;59609;52.430;4.668;2022-10-26T07:33:26;101371.63;;;13.24;100.00
71778;BME280;59609;52.430;4.668;2022-10-26T07:35:51;101368.53;;;13.27;100.00
71778;BME280;59609;52.430;4.668;2022-10-26T07:38:18;101371.28;;;13.27;100.00
71778;BME280;59609;52.430;4.668;2022-10-26T07:40:43;101379.94;;;13.40;100.00
71778;BME280;59609;52.430;4.668;2022-10-26T07:43:09;101378.56;;;13.44;100.00
71778;BME280;59609;52.430;4.668;2022-10-26T07:45:34;101380.28;;;13.53;100.00
71778;BME280;59609;52.430;4.668;2022-10-26T07:48:01;101387.75;;;13.61;100.00
71778;BME280;59609;52.430;4.668;2022-10-26T07:50:26;101401.22;;;13.56;100.00
71778;BME280;59609;52.430;4.668;2022-10-26T07:52:52;101407.63;;;13.56;100.00
71778;BME280;59609;52.430;4.668;2022-10-26T07:55:17;101413.34;;;13.47;100.00
71778;BME280;59609;52.430;4.668;2022-10-26T07:57:43;101413.69;;;13.60;100.00
71778;BME280;59609;52.430;4.668;2022-10-26T08:00:09;101414.03;;;13.57;100.00
71778;BME280;59609;52.430;4.668;2022-10-26T08:02:35;101414.38;;;13.86;100.00
71778;BME280;59609;52.430;4.668;2022-10-26T08:05:00;101408.16;;;14.63;100.00
71778;BME280;59609;52.430;4.668;2022-10-26T08:07:26;101417.00;;;14.67;99.24
71778;BME280;59609;52.430;4.668;2022-10-26T08:09:52;101417.59;;;14.85;97.01
71778;BME280;59609;52.430;4.668;2022-10-26T08:12:18;101424.50;;;14.89;97.49
71778;BME280;59609;52.430;4.668;2022-10-26T08:14:43;101419.16;;;14.87;96.77
71778;BME280;59609;52.430;4.668;2022-10-26T08:17:09;101424.09;;;14.61;98.22
71778;BME280;59609;52.430;4.668;2022-10-26T08:19:34;101434.88;;;14.64;99.15
71778;BME280;59609;52.430;4.668;2022-10-26T08:22:00;101430.06;;;14.50;99.21
71778;BME280;59609;52.430;4.668;2022-10-26T08:24:25;101417.75;;;14.44;98.78
71778;BME280;59609;52.430;4.668;2022-10-26T08:26:50;101424.66;;;14.49;98.87
71778;BME280;59609;52.430;4.668;2022-10-26T08:29:16;101426.88;;;14.61;98.61
71778;BME280;59609;52.430;4.668;2022-10-26T08:31:41;101423.34;;;14.75;98.45
71778;BME280;59609;52.430;4.668;2022-10-26T08:34:07;101422.22;;;15.01;98.10
71778;BME280;59609;52.430;4.668;2022-10-26T08:36:32;101402.09;;;15.21;95.83
71778;BME280;59609;52.430;4.668;2022-10-26T08:38:58;101408.84;;;15.04;96.79
71778;BME280;59609;52.430;4.668;2022-10-26T08:41:44;101407.00;;;15.19;97.38
71778;BME280;59609;52.430;4.668;2022-10-26T08:44:30;101410.56;;;15.28;96.77
71778;BME280;59609;52.430;4.668;2022-10-26T08:47:04;101408.66;;;15.28;96.17
71778;BME280;59609;52.430;4.668;2022-10-26T08:52:16;101400.63;;;15.64;94.79
71778;BME280;59609;52.430;4.668;2022-10-26T08:54:48;101410.31;;;15.68;94.51
71778;BME280;59609;52.430;4.668;2022-10-26T08:57:20;101414.03;;;15.61;95.25
71778;BME280;59609;52.430;4.668;2022-10-26T09:00:03;101411.56;;;16.03;94.18
71778;BME280;59609;52.430;4.668;2022-10-26T09:02:29;101407.97;;;15.94;93.66
71778;BME280;59609;52.430;4.668;2022-10-26T09:04:57;101412.84;;;16.30;92.73
71778;BME280;59609;52.430;4.668;2022-10-26T09:13:08;101410.03;;;16.15;92.56
71778;BME280;59609;52.430;4.668;2022-10-26T09:21:12;101434.22;;;16.29;92.44
71778;BME280;59609;52.430;4.668;2022-10-26T09:23:55;101432.03;;;16.39;92.63
71778;BME280;59609;52.430;4.668;2022-10-26T09:26:28;101427.50;;;16.38;92.07
71778;BME280;59609;52.430;4.668;2022-10-26T09:28:58;101436.06;;;16.52;92.30
71778;BME280;59609;52.430;4.668;2022-10-26T09:31:26;101441.09;;;16.56;91.14
71778;BME280;59609;52.430;4.668;2022-10-26T09:33:52;101449.44;;;16.56;90.97
71778;BME280;59609;52.430;4.668;2022-10-26T09:36:19;101438.00;;;16.51;91.56
71778;BME280;59609;52.430;4.668;2022-10-26T09:39:18;101449.25;;;16.58;91.56
71778;BME280;59609;52.430;4.668;2022-10-26T09:41:55;101460.34;;;16.43;91.78
71778;BME280;59609;52.430;4.668;2022-10-26T09:45:02;101457.47;;;16.51;92.38
71778;BME280;59609;52.430;4.668;2022-10-26T09:47:37;101459.78;;;16.47;91.83
71778;BME280;59609;52.430;4.668;2022-10-26T09:50:17;101459.03;;;16.68;92.33
71778;BME280;59609;52.430;4.668;2022-10-26T09:52:44;101454.03;;;16.78;92.26
71778;BME280;59609;52.430;4.668;2022-10-26T09:55:10;101460.66;;;16.92;90.62
71778;BME280;59609;52.430;4.668;2022-10-26T09:57:39;101461.69;;;17.06;90.72
71778;BME280;59609;52.430;4.668;2022-10-26T10:00:11;101475.88;;;17.25;90.02
71778;BME280;59609;52.430;4.668;2022-10-26T10:02:39;101477.03;;;17.31;89.30
71778;BME280;59609;52.430;4.668;2022-10-26T10:05:33;101480.31;;;17.34;89.49
71778;BME280;59609;52.430;4.668;2022-10-26T10:08:23;101483.50;;;17.52;88.65
71778;BME280;59609;52.430;4.668;2022-10-26T10:11:10;101493.78;;;17.67;88.20
71778;BME280;59609;52.430;4.668;2022-10-26T10:13:38;101490.91;;;17.81;88.03
71778;BME280;59609;52.430;4.668;2022-10-26T10:16:22;101497.16;;;17.62;89.07
71778;BME280;59609;52.430;4.668;2022-10-26T10:18:56;101494.56;;;17.82;89.48
71778;BME280;59609;52.430;4.668;2022-10-26T10:21:47;101516.06;;;17.67;90.10
71778;BME280;59609;52.430;4.668;2022-10-26T10:29:26;101543.53;;;17.55;92.26
71778;BME280;59609;52.430;4.668;2022-10-26T10:31:56;101535.72;;;17.44;93.50
71778;BME280;59609;52.430;4.668;2022-10-26T10:34:22;101536.66;;;17.51;93.37
71778;BME280;59609;52.430;4.668;2022-10-26T10:36:48;101543.53;;;17.55;93.56
71778;BME280;59609;52.430;4.668;2022-10-26T10:39:37;101539.31;;;17.74;93.27
71778;BME280;59609;52.430;4.668;2022-10-26T10:42:10;101534.72;;;17.66;92.42
71778;BME280;59609;52.430;4.668;2022-10-26T10:44:38;101547.31;;;17.62;92.63
71778;BME280;59609;52.430;4.668;2022-10-26T10:47:05;101550.50;;;17.59;94.21
71778;BME280;59609;52.430;4.668;2022-10-26T10:49:32;101559.16;;;17.64;93.54
71778;BME280;59609;52.430;4.668;2022-10-26T10:51:58;101548.47;;;17.68;93.60
71778;BME280;59609;52.430;4.668;2022-10-26T10:56:54;101548.84;;;18.00;92.31
71778;BME280;59609;52.430;4.668;2022-10-26T10:59:29;101546.53;;;18.04;92.04
71778;BME280;59609;52.430;4.668;2022-10-26T11:02:21;101551.84;;;18.20;90.84
71778;BME280;59609;52.430;4.668;2022-10-26T11:10:16;101561.84;;;18.15;91.02
71778;BME280;59609;52.430;4.668;2022-10-26T11:12:52;101569.50;;;18.27;90.45
71778;BME280;59609;52.430;4.668;2022-10-26T11:15:23;101564.56;;;18.08;90.75
71778;BME280;59609;52.430;4.668;2022-10-26T11:18:03;101563.03;;;18.06;91.20
71778;BME280;59609;52.430;4.668;2022-10-26T11:20:35;101552.41;;;18.37;88.71
71778;BME280;59609;52.430;4.668;2022-10-26T11:23:08;101566.44;;;18.92;86.81
71778;BME280;59609;52.430;4.668;2022-10-26T11:25:53;101571.50;;;18.82;85.42
71778;BME280;59609;52.430;4.668;2022-10-26T11:28:39;101567.69;;;19.18;84.05
71778;BME280;59609;52.430;4.668;2022-10-26T11:31:22;101577.97;;;19.11;83.75
71778;BME280;59609;52.430;4.668;2022-10-26T11:34:18;101572.09;;;19.40;83.65
71778;BME280;59609;52.430;4.668;2022-10-26T11:36:54;101582.75;;;19.51;80.85
71778;BME280;59609;52.430;4.668;2022-10-26T11:39:31;101596.84;;;19.09;82.95
71778;BME280;59609;52.430;4.668;2022-10-26T11:42:23;101594.88;;;19.02;83.91
71778;BME280;59609;52.430;4.668;2022-10-26T11:44:58;101590.66;;;19.13;82.85
71778;BME280;59609;52.430;4.668;2022-10-26T11:47:32;101586.44;;;19.24;83.70
71778;BME280;59609;52.430;4.668;2022-10-26T11:50:15;101586.78;;;19.48;83.16
71778;BME280;59609;52.430;4.668;2022-10-26T11:52:53;101583.16;;;19.48;82.11
71778;BME280;59609;52.430;4.668;2022-10-26T11:55:22;101588.69;;;19.41;82.93
71778;BME280;59609;52.430;4.668;2022-10-26T11:57:49;101584.88;;;19.49;82.16
71778;BME280;59609;52.430;4.668;2022-10-26T12:00:16;101592.31;;;19.76;81.92
71778;BME280;59609;52.430;4.668;2022-10-26T12:02:45;101591.00;;;19.72;81.52
71778;BME280;59609;52.430;4.668;2022-10-26T12:05:43;101599.91;;;19.14;83.95
71778;BME280;59609;52.430;4.668;2022-10-26T12:08:37;101604.94;;;18.97;85.74
71778;BME280;59609;52.430;4.668;2022-10-26T12:16:50;101614.13;;;18.27;88.99
71778;BME280;59609;52.430;4.668;2022-10-26T12:20:09;101620.88;;;18.54;87.43
71778;BME280;59609;52.430;4.668;2022-10-26T12:22:09;101617.38;;;18.94;87.33
71778;BME280;59609;52.430;4.668;2022-10-26T12:24:45;101607.97;;;19.02;85.65
71778;BME280;59609;52.430;4.668;2022-10-26T12:27:50;101624.25;;;19.26;85.17
71778;BME280;59609;52.430;4.668;2022-10-26T12:37:55;101616.97;;;19.60;82.02
71778;BME280;59609;52.430;4.668;2022-10-26T12:42:57;101622.06;;;19.49;81.84
71778;BME280;59609;52.430;4.668;2022-10-26T12:45:46;101626.78;;;19.49;80.23
71778;BME280;59609;52.430;4.668;2022-10-26T12:56:19;101640.50;;;19.78;79.15
71778;BME280;59609;52.430;4.668;2022-10-26T12:59:06;101647.59;;;19.74;79.12
71778;BME280;59609;52.430;4.668;2022-10-26T13:01:51;101634.66;;;19.67;79.46
71778;BME280;59609;52.430;4.668;2022-10-26T13:04:25;101637.78;;;19.91;78.18
71778;BME280;59609;52.430;4.668;2022-10-26T13:07:23;101656.78;;;19.68;78.10
71778;BME280;59609;52.430;4.668;2022-10-26T13:10:00;101645.69;;;19.75;78.30
71778;BME280;59609;52.430;4.668;2022-10-26T13:12:37;101654.56;;;19.50;76.59
71778;BME280;59609;52.430;4.668;2022-10-26T13:15:19;101651.84;;;19.36;77.29
71778;BME280;59609;52.430;4.668;2022-10-26T13:18:15;101649.41;;;19.26;77.83
71778;BME280;59609;52.430;4.668;2022-10-26T13:20:51;101657.59;;;19.28;78.05
71778;BME280;59609;52.430;4.668;2022-10-26T13:23:26;101662.16;;;19.35;78.03
71778;BME280;59609;52.430;4.668;2022-10-26T13:26:07;101667.50;;;19.58;77.69
71778;BME280;59609;52.430;4.668;2022-10-26T13:39:29;101683.78;;;18.99;79.57
71778;BME280;59609;52.430;4.668;2022-10-26T13:41:53;101683.13;;;18.97;79.89
71778;BME280;59609;52.430;4.668;2022-10-26T13:44:25;101685.53;;;19.00;79.48
71778;BME280;59609;52.430;4.668;2022-10-26T13:46:57;101701.94;;;18.88;80.09
71778;BME280;59609;52.430;4.668;2022-10-26T13:49:27;101697.03;;;18.90;80.33
71778;BME280;59609;52.430;4.668;2022-10-26T13:51:55;101695.59;;;18.94;80.25
71778;BME280;59609;52.430;4.668;2022-10-26T13:54:44;101696.69;;;19.00;80.54
71778;BME280;59609;52.430;4.668;2022-10-26T13:57:39;101694.38;;;19.03;80.45
71778;BME280;59609;52.430;4.668;2022-10-26T14:00:19;101705.28;;;19.26;80.10
71778;BME280;59609;52.430;4.668;2022-10-26T14:02:45;101699.56;;;19.34;78.80
71778;BME280;59609;52.430;4.668;2022-10-26T14:05:13;101704.69;;;19.31;79.48
71778;BME280;59609;52.430;4.668;2022-10-26T14:07:44;101700.72;;;19.19;80.01
71778;BME280;59609;52.430;4.668;2022-10-26T14:12:59;101701.13;;;19.16;79.83
71778;BME280;59609;52.430;4.668;2022-10-26T14:15:29;101709.84;;;19.06;80.08
71778;BME280;59609;52.430;4.668;2022-10-26T14:17:57;101700.25;;;18.87;81.35
71778;BME280;59609;52.430;4.668;2022-10-26T14:20:24;101711.13;;;18.82;81.10
71778;BME280;59609;52.430;4.668;2022-10-26T14:22:51;101702.34;;;18.85;81.88
71778;BME280;59609;52.430;4.668;2022-10-26T14:25:21;101719.50;;;18.82;80.65
71778;BME280;59609;52.430;4.668;2022-10-26T14:27:49;101724.63;;;18.79;81.62
71778;BME280;59609;52.430;4.668;2022-10-26T14:30:27;101720.31;;;18.76;81.46
71778;BME280;59609;52.430;4.668;2022-10-26T14:32:54;101725.44;;;18.73;81.61
71778;BME280;59609;52.430;4.668;2022-10-26T14:35:27;101723.91;;;18.70;82.04
71778;BME280;59609;52.430;4.668;2022-10-26T14:38:01;101735.72;;;18.72;81.77
71778;BME280;59609;52.430;4.668;2022-10-26T14:40:29;101735.94;;;18.71;81.82